createdAt,value
2023-03-27T00:00:16.793Z,8.45
2023-03-27T00:02:49.097Z,8.48
2023-03-27T00:05:20.469Z,8.48
2023-03-27T00:07:51.144Z,8.50
2023-03-27T00:10:19.102Z,8.54
2023-03-27T00:12:47.260Z,8.58
2023-03-27T00:15:17.363Z,8.56
2023-03-27T00:17:47.046Z,8.54
2023-03-27T00:20:23.067Z,8.55
2023-03-27T00:22:56.448Z,8.56
2023-03-27T00:25:29.173Z,8.57
2023-03-27T00:28:04.493Z,8.61
2023-03-27T00:30:33.852Z,8.63
2023-03-27T00:33:02.115Z,8.65
2023-03-27T00:35:30.487Z,8.63
2023-03-27T00:37:59.010Z,8.68
2023-03-27T00:40:27.273Z,8.71
2023-03-27T00:42:57.788Z,8.73
2023-03-27T00:45:30.250Z,8.76
2023-03-27T00:48:04.920Z,8.75
2023-03-27T00:50:38.101Z,8.79
2023-03-27T00:53:14.016Z,8.73
2023-03-27T00:55:46.127Z,8.68
2023-03-27T00:58:22.515Z,8.67
2023-03-27T01:00:54.244Z,8.67
2023-03-27T01:03:31.258Z,8.67
2023-03-27T01:06:02.258Z,8.64
2023-03-27T01:08:34.024Z,8.67
2023-03-27T01:11:01.904Z,8.69
2023-03-27T01:13:51.241Z,8.74
2023-03-27T01:16:36.017Z,8.76
2023-03-27T01:19:24.928Z,8.71
2023-03-27T01:22:12.174Z,8.65
2023-03-27T01:25:09.083Z,8.65
2023-03-27T01:28:15.187Z,8.59
2023-03-27T01:31:05.839Z,8.61
2023-03-27T01:33:51.889Z,8.64
2023-03-27T01:36:44.280Z,8.65
2023-03-27T01:39:34.568Z,8.69
2023-03-27T01:42:34.792Z,8.68
2023-03-27T01:45:05.613Z,8.65
2023-03-27T01:47:39.126Z,8.67
2023-03-27T01:50:09.550Z,8.60
2023-03-27T01:52:42.265Z,8.58
2023-03-27T01:55:19.269Z,8.56
2023-03-27T01:58:00.695Z,8.55
2023-03-27T02:00:52.452Z,8.53
2023-03-27T02:03:36.000Z,8.56
2023-03-27T02:06:11.571Z,8.59
2023-03-27T02:08:50.244Z,8.55
2023-03-27T02:11:24.129Z,8.57
2023-03-27T02:14:00.547Z,8.64
2023-03-27T02:16:34.607Z,8.61
2023-03-27T02:19:14.165Z,8.56
2023-03-27T02:21:42.490Z,8.55
2023-03-27T02:24:10.046Z,8.55
2023-03-27T02:26:39.686Z,8.46
2023-03-27T02:29:10.300Z,8.44
2023-03-27T02:32:13.103Z,8.46
2023-03-27T02:35:04.068Z,8.50
2023-03-27T02:37:59.325Z,8.42
2023-03-27T02:41:07.359Z,8.40
2023-03-27T02:44:12.547Z,8.32
2023-03-27T02:47:11.844Z,8.37
2023-03-27T02:49:51.556Z,8.40
2023-03-27T02:52:32.662Z,8.38
2023-03-27T02:55:06.955Z,8.31
2023-03-27T02:57:51.614Z,8.29
2023-03-27T03:00:49.144Z,8.27
2023-03-27T03:04:01.762Z,8.27
2023-03-27T03:06:54.269Z,8.27
2023-03-27T03:09:22.757Z,8.25
2023-03-27T03:11:52.879Z,8.15
2023-03-27T03:14:41.111Z,8.15
2023-03-27T03:17:09.551Z,8.14
2023-03-27T03:19:38.258Z,8.12
2023-03-27T03:22:06.653Z,8.12
2023-03-27T03:24:35.766Z,8.12
2023-03-27T03:27:04.640Z,8.08
2023-03-27T03:29:40.201Z,8.03
2023-03-27T03:32:27.511Z,8.12
2023-03-27T03:34:57.105Z,8.11
2023-03-27T03:37:28.847Z,7.99
2023-03-27T03:39:58.824Z,8.08
2023-03-27T03:42:26.659Z,8.05
2023-03-27T03:44:55.841Z,8.02
2023-03-27T03:47:23.884Z,8.02
2023-03-27T03:49:51.535Z,7.97
2023-03-27T03:52:19.480Z,7.93
2023-03-27T03:54:47.086Z,7.95
2023-03-27T03:57:18.635Z,7.94
2023-03-27T04:00:01.127Z,8.01
2023-03-27T04:02:57.694Z,8.02
2023-03-27T04:05:26.154Z,8.02
2023-03-27T04:07:59.453Z,7.93
2023-03-27T04:10:41.709Z,7.90
2023-03-27T04:13:25.745Z,7.95
2023-03-27T04:16:01.889Z,7.94
2023-03-27T04:18:39.413Z,8.03
2023-03-27T04:21:14.899Z,8.07
2023-03-27T04:23:45.034Z,8.14
2023-03-27T04:26:16.152Z,8.16
2023-03-27T04:29:10.482Z,8.20
2023-03-27T04:32:01.141Z,8.26
2023-03-27T04:34:40.829Z,8.33
2023-03-27T04:37:35.126Z,8.32
2023-03-27T04:40:16.085Z,8.39
2023-03-27T04:42:45.120Z,8.35
2023-03-27T04:45:17.360Z,8.36
2023-03-27T04:47:49.225Z,8.45
2023-03-27T04:50:17.900Z,8.44
2023-03-27T04:52:49.827Z,8.38
2023-03-27T04:55:19.834Z,8.49
2023-03-27T04:57:50.194Z,8.63
2023-03-27T05:00:19.137Z,8.74
2023-03-27T05:02:47.916Z,8.67
2023-03-27T05:05:21.194Z,8.64
2023-03-27T05:07:52.760Z,8.72
2023-03-27T05:10:24.663Z,8.71
2023-03-27T05:12:55.792Z,8.79
2023-03-27T05:15:24.775Z,8.71
2023-03-27T05:17:54.599Z,8.74
2023-03-27T05:20:30.960Z,8.83
2023-03-27T05:23:04.625Z,8.82
2023-03-27T05:25:33.553Z,8.79
2023-03-27T05:28:06.301Z,8.90
2023-03-27T05:30:37.030Z,8.88
2023-03-27T05:33:23.503Z,8.89
2023-03-27T05:35:53.462Z,8.93
2023-03-27T05:38:22.843Z,8.85
2023-03-27T05:41:25.982Z,8.81
2023-03-27T05:43:57.180Z,8.79
2023-03-27T05:46:27.933Z,8.86
2023-03-27T05:49:04.535Z,8.98
2023-03-27T05:51:32.803Z,9.04
2023-03-27T05:54:00.705Z,9.13
2023-03-27T05:56:39.360Z,9.20
2023-03-27T05:59:07.053Z,9.16
2023-03-27T06:01:37.298Z,9.19
2023-03-27T06:04:06.150Z,9.35
2023-03-27T06:07:12.773Z,9.43
2023-03-27T06:09:41.762Z,9.42
2023-03-27T06:12:30.076Z,9.45
2023-03-27T06:15:07.639Z,9.38
2023-03-27T06:17:41.216Z,9.46
2023-03-27T06:20:16.749Z,9.50
2023-03-27T06:22:55.767Z,9.57
2023-03-27T06:25:33.219Z,9.51
2023-03-27T06:28:02.696Z,9.59
2023-03-27T06:30:33.123Z,9.63
2023-03-27T06:33:40.902Z,9.70
2023-03-27T06:36:18.454Z,9.73
2023-03-27T06:38:52.063Z,9.80
2023-03-27T06:41:20.323Z,9.81
2023-03-27T06:44:06.644Z,9.80
2023-03-27T06:46:54.939Z,9.91
2023-03-27T06:49:54.670Z,9.92
2023-03-27T06:52:24.936Z,9.74
2023-03-27T06:54:56.836Z,9.60
2023-03-27T06:57:27.985Z,9.65
2023-03-27T07:00:01.666Z,9.53
2023-03-27T07:03:01.523Z,9.63
2023-03-27T07:06:06.457Z,9.59
2023-03-27T07:08:57.520Z,9.67
2023-03-27T07:11:25.708Z,9.73
2023-03-27T07:13:59.763Z,9.83
2023-03-27T07:16:29.287Z,9.97
2023-03-27T07:19:01.988Z,10.01
2023-03-27T07:21:31.765Z,10.14
2023-03-27T07:24:00.333Z,10.18
2023-03-27T07:26:33.831Z,10.27
2023-03-27T07:29:14.305Z,10.26
2023-03-27T07:31:56.555Z,10.28
2023-03-27T07:34:35.117Z,10.23
2023-03-27T07:37:08.732Z,10.21
2023-03-27T07:39:41.351Z,10.27
2023-03-27T07:42:09.352Z,10.27
2023-03-27T07:45:04.447Z,10.31
2023-03-27T07:47:33.540Z,10.40
2023-03-27T07:50:02.711Z,10.47
2023-03-27T07:52:30.612Z,10.63
2023-03-27T07:55:01.807Z,10.60
2023-03-27T07:58:00.931Z,10.62
2023-03-27T08:00:32.649Z,10.71
2023-03-27T08:03:11.756Z,10.79
2023-03-27T08:05:45.596Z,10.73
2023-03-27T08:08:16.194Z,10.73
2023-03-27T08:10:55.557Z,10.80
2023-03-27T08:13:24.695Z,10.79
2023-03-27T08:15:53.014Z,10.80
2023-03-27T08:18:27.184Z,10.80
2023-03-27T08:20:58.556Z,10.74
2023-03-27T08:23:27.835Z,10.81
2023-03-27T08:26:16.116Z,11.05
2023-03-27T08:28:56.275Z,11.21
2023-03-27T08:31:29.346Z,11.38
2023-03-27T08:34:00.409Z,11.60
2023-03-27T08:36:38.411Z,11.58
2023-03-27T08:39:08.265Z,11.52
2023-03-27T08:42:03.071Z,11.52
2023-03-27T08:44:39.122Z,11.40
2023-03-27T08:47:36.932Z,11.55
2023-03-27T08:50:52.998Z,11.74
2023-03-27T08:53:42.592Z,11.99
2023-03-27T08:56:14.868Z,12.16
2023-03-27T08:58:44.894Z,12.47
2023-03-27T09:01:35.521Z,12.72
2023-03-27T09:04:23.344Z,12.74
2023-03-27T09:07:22.997Z,13.02
2023-03-27T09:10:17.535Z,13.17
2023-03-27T09:12:59.028Z,13.10
2023-03-27T09:15:37.002Z,12.96
2023-03-27T09:18:07.159Z,12.92
2023-03-27T09:20:41.082Z,12.73
2023-03-27T09:23:13.834Z,12.66
2023-03-27T09:26:18.503Z,12.45
2023-03-27T09:29:07.298Z,12.55
2023-03-27T09:31:48.387Z,12.82
2023-03-27T09:34:23.597Z,13.20
2023-03-27T09:36:51.578Z,13.32
2023-03-27T09:39:23.277Z,13.24
2023-03-27T09:42:09.261Z,13.05
2023-03-27T09:44:42.553Z,13.01
2023-03-27T09:47:17.861Z,12.99
2023-03-27T09:49:53.069Z,12.98
2023-03-27T09:52:39.655Z,12.79
2023-03-27T09:55:31.565Z,12.74
2023-03-27T09:58:20.695Z,12.74
2023-03-27T10:00:49.184Z,12.76
2023-03-27T10:03:20.959Z,12.87
2023-03-27T10:06:13.925Z,12.86
2023-03-27T10:08:57.678Z,12.80
2023-03-27T10:11:34.561Z,12.91
2023-03-27T10:14:26.288Z,13.07
2023-03-27T10:16:59.425Z,13.13
2023-03-27T10:19:30.958Z,13.14
2023-03-27T10:22:06.713Z,13.08
2023-03-27T10:24:46.196Z,12.98
2023-03-27T10:27:46.704Z,12.94
2023-03-27T10:30:40.983Z,12.93
2023-03-27T10:33:37.632Z,12.90
2023-03-27T10:36:24.371Z,12.88
2023-03-27T10:39:02.185Z,13.07
2023-03-27T10:41:46.977Z,13.32
2023-03-27T10:44:20.465Z,13.40
2023-03-27T10:46:55.162Z,13.45
2023-03-27T10:49:44.198Z,13.48
2023-03-27T10:52:37.027Z,13.49
2023-03-27T10:55:47.817Z,13.51
2023-03-27T10:58:31.285Z,13.54
2023-03-27T11:01:21.084Z,13.55
2023-03-27T11:04:15.362Z,13.50
2023-03-27T11:07:00.204Z,13.50
2023-03-27T11:09:37.140Z,13.46
2023-03-27T11:12:14.418Z,13.41
2023-03-27T11:15:15.512Z,13.37
2023-03-27T11:18:12.270Z,13.34
2023-03-27T11:21:14.328Z,13.45
2023-03-27T11:23:56.190Z,13.47
2023-03-27T11:26:59.968Z,13.41
2023-03-27T11:29:45.699Z,13.41
2023-03-27T11:32:29.283Z,13.47
2023-03-27T11:35:05.825Z,13.47
2023-03-27T11:37:52.440Z,13.57
2023-03-27T11:40:35.041Z,13.66
2023-03-27T11:43:03.434Z,13.71
2023-03-27T11:45:50.212Z,13.79
2023-03-27T11:48:42.800Z,13.85
2023-03-27T11:51:57.684Z,13.92
2023-03-27T11:54:43.126Z,13.99
2023-03-27T11:57:23.984Z,13.99
2023-03-27T12:00:16.368Z,14.11
2023-03-27T12:02:57.624Z,14.22
2023-03-27T12:05:53.142Z,14.28
2023-03-27T12:08:53.188Z,14.35
2023-03-27T12:11:22.947Z,14.36
2023-03-27T12:14:02.394Z,14.41
2023-03-27T12:17:01.710Z,14.61
2023-03-27T12:20:19.053Z,15.03
2023-03-27T12:23:03.472Z,15.53
2023-03-27T12:25:45.337Z,15.90
2023-03-27T12:28:50.497Z,15.99
2023-03-27T12:31:32.830Z,16.04
2023-03-27T12:34:30.965Z,15.84
2023-03-27T12:37:01.194Z,15.48
2023-03-27T12:39:28.993Z,15.28
2023-03-27T12:42:14.093Z,15.51
2023-03-27T12:45:22.517Z,15.74
2023-03-27T12:48:05.428Z,15.50
2023-03-27T12:50:55.617Z,15.49
2023-03-27T12:53:26.870Z,15.51
2023-03-27T12:56:29.557Z,15.62
2023-03-27T12:58:57.767Z,15.69
2023-03-27T13:01:51.696Z,16.03
2023-03-27T13:04:41.510Z,16.36
2023-03-27T13:07:33.678Z,16.19
2023-03-27T13:10:26.723Z,16.06
2023-03-27T13:13:44.851Z,15.80
2023-03-27T13:16:15.811Z,15.43
2023-03-27T13:19:23.060Z,15.20
2023-03-27T13:22:00.109Z,15.31
2023-03-27T13:24:52.527Z,15.59
2023-03-27T13:27:44.059Z,15.83
2023-03-27T13:30:45.582Z,15.92
2023-03-27T13:33:35.866Z,16.14
2023-03-27T13:36:11.640Z,16.12
2023-03-27T13:38:52.870Z,16.01
2023-03-27T13:41:46.921Z,15.78
2023-03-27T13:44:26.802Z,15.80
2023-03-27T13:47:09.047Z,15.90
2023-03-27T13:50:05.261Z,15.84
2023-03-27T13:52:33.566Z,15.72
2023-03-27T13:55:28.658Z,15.55
2023-03-27T13:58:45.597Z,15.64
2023-03-27T14:01:37.293Z,15.75
2023-03-27T14:04:33.403Z,15.70
2023-03-27T14:07:10.760Z,15.83
2023-03-27T14:10:10.044Z,15.78
2023-03-27T14:13:03.462Z,15.70
2023-03-27T14:16:23.853Z,15.62
2023-03-27T14:19:19.804Z,15.75
2023-03-27T14:21:50.943Z,15.86
2023-03-27T14:24:44.476Z,15.76
2023-03-27T14:27:48.905Z,15.82
2023-03-27T14:30:32.699Z,15.95
2023-03-27T14:33:22.982Z,16.01
2023-03-27T14:36:02.561Z,16.12
2023-03-27T14:38:37.252Z,16.21
2023-03-27T14:41:19.163Z,16.06
2023-03-27T14:43:53.889Z,16.03
2023-03-27T14:46:24.575Z,15.92
2023-03-27T14:48:58.154Z,15.88
2023-03-27T14:51:42.063Z,15.85
2023-03-27T14:54:28.754Z,15.73
2023-03-27T14:57:09.203Z,15.64
2023-03-27T14:59:45.333Z,15.60
2023-03-27T15:02:23.815Z,15.52
2023-03-27T15:05:00.108Z,15.27
2023-03-27T15:07:34.774Z,15.19
2023-03-27T15:10:37.284Z,15.11
2023-03-27T15:13:10.697Z,15.10
2023-03-27T15:15:47.034Z,15.06
2023-03-27T15:18:28.333Z,15.03
2023-03-27T15:21:00.673Z,14.92
2023-03-27T15:23:33.688Z,14.88
2023-03-27T15:26:09.737Z,14.83
2023-03-27T15:29:01.844Z,14.82
2023-03-27T15:31:33.109Z,14.73
2023-03-27T15:34:37.522Z,14.63
2023-03-27T15:37:11.893Z,14.53
2023-03-27T15:40:13.682Z,14.50
2023-03-27T15:42:52.133Z,14.48
2023-03-27T15:45:34.891Z,14.38
2023-03-27T15:48:05.739Z,14.29
2023-03-27T15:50:34.144Z,14.23
2023-03-27T15:53:01.873Z,14.18
2023-03-27T15:55:31.557Z,14.11
2023-03-27T15:58:27.264Z,14.12
2023-03-27T16:01:01.394Z,14.06
2023-03-27T16:03:34.680Z,14.01
2023-03-27T16:06:04.344Z,13.96
2023-03-27T16:08:38.081Z,13.89
2023-03-27T16:11:06.471Z,13.87
2023-03-27T16:13:37.306Z,13.84
2023-03-27T16:16:20.197Z,13.74
2023-03-27T16:18:51.579Z,13.69
2023-03-27T16:21:26.340Z,13.68
2023-03-27T16:23:54.034Z,13.69
2023-03-27T16:26:41.364Z,13.71
2023-03-27T16:29:10.617Z,13.68
2023-03-27T16:31:38.158Z,13.72
2023-03-27T16:34:22.480Z,13.66
2023-03-27T16:36:51.608Z,13.62
2023-03-27T16:39:24.356Z,13.55
2023-03-27T16:41:52.818Z,13.53
2023-03-27T16:44:22.221Z,13.48
2023-03-27T16:46:49.782Z,13.47
2023-03-27T16:49:17.289Z,13.41
2023-03-27T16:51:44.809Z,13.38
2023-03-27T16:54:12.704Z,13.31
2023-03-27T16:56:44.729Z,13.27
2023-03-27T16:59:12.574Z,13.28
2023-03-27T17:01:40.344Z,13.24
2023-03-27T17:04:08.027Z,13.23
2023-03-27T17:06:38.286Z,13.17
2023-03-27T17:09:08.108Z,13.13
2023-03-27T17:11:36.547Z,13.14
2023-03-27T17:14:04.300Z,13.10
2023-03-27T17:16:32.199Z,13.08
2023-03-27T17:19:00.311Z,13.03
2023-03-27T17:21:28.031Z,12.99
2023-03-27T17:23:55.753Z,13.00
2023-03-27T17:26:26.845Z,13.00
2023-03-27T17:28:54.426Z,12.98
2023-03-27T17:31:22.028Z,12.93
2023-03-27T17:33:50.183Z,12.88
2023-03-27T17:36:29.764Z,12.83
2023-03-27T17:39:07.873Z,12.77
2023-03-27T17:41:35.545Z,12.74
2023-03-27T17:44:07.422Z,12.71
2023-03-27T17:46:36.451Z,12.63
2023-03-27T17:49:04.018Z,12.59
2023-03-27T17:51:31.539Z,12.57
2023-03-27T17:54:06.025Z,12.51
2023-03-27T17:56:34.819Z,12.52
2023-03-27T17:59:02.595Z,12.54
2023-03-27T18:01:32.659Z,12.54
2023-03-27T18:04:00.637Z,12.53
2023-03-27T18:06:28.363Z,12.53
2023-03-27T18:08:56.081Z,12.49
2023-03-27T18:11:23.740Z,12.51
2023-03-27T18:13:53.229Z,12.49
2023-03-27T18:16:22.190Z,12.44
2023-03-27T18:18:52.380Z,12.38
2023-03-27T18:21:19.972Z,12.31
2023-03-27T18:23:47.528Z,12.28
2023-03-27T18:26:16.009Z,12.28
2023-03-27T18:28:46.997Z,12.23
2023-03-27T18:31:15.921Z,12.19
2023-03-27T18:33:43.560Z,12.17
2023-03-27T18:36:12.129Z,12.21
2023-03-27T18:38:41.925Z,12.20
2023-03-27T18:41:11.340Z,12.13
2023-03-27T18:43:48.062Z,12.10
2023-03-27T18:46:17.344Z,12.00
2023-03-27T18:48:49.256Z,11.92
2023-03-27T18:51:20.597Z,11.92
2023-03-27T18:53:50.459Z,11.93
2023-03-27T18:56:18.746Z,11.90
2023-03-27T18:58:47.320Z,11.84
2023-03-27T19:01:15.050Z,11.83
2023-03-27T19:03:43.522Z,11.84
2023-03-27T19:06:12.052Z,11.83
2023-03-27T19:08:42.116Z,11.79
2023-03-27T19:11:13.146Z,11.79
2023-03-27T19:14:15.943Z,11.74
2023-03-27T19:17:02.383Z,11.68
2023-03-27T19:19:32.029Z,11.62
2023-03-27T19:22:18.445Z,11.64
2023-03-27T19:24:56.576Z,11.58
2023-03-27T19:27:24.963Z,11.55
2023-03-27T19:29:53.905Z,11.50
2023-03-27T19:32:22.079Z,11.47
2023-03-27T19:34:49.613Z,11.45
2023-03-27T19:37:18.732Z,11.45
2023-03-27T19:39:46.327Z,11.44
2023-03-27T19:42:14.309Z,11.43
2023-03-27T19:44:43.051Z,11.49
2023-03-27T19:47:11.075Z,11.45
2023-03-27T19:49:40.095Z,11.46
2023-03-27T19:52:17.116Z,11.42
2023-03-27T19:54:44.705Z,11.43
2023-03-27T19:57:12.418Z,11.40
2023-03-27T19:59:40.301Z,11.41
2023-03-27T20:02:07.896Z,11.39
2023-03-27T20:04:35.640Z,11.35
2023-03-27T20:07:03.243Z,11.37
2023-03-27T20:09:31.473Z,11.31
2023-03-27T20:11:59.013Z,11.23
2023-03-27T20:14:30.556Z,11.22
2023-03-27T20:16:59.794Z,11.19
2023-03-27T20:19:30.736Z,11.17
2023-03-27T20:22:01.004Z,11.16
2023-03-27T20:24:29.120Z,11.20
2023-03-27T20:27:00.030Z,11.14
2023-03-27T20:29:28.900Z,11.05
2023-03-27T20:31:56.567Z,11.00
2023-03-27T20:34:24.360Z,11.00
2023-03-27T20:36:53.265Z,11.01
2023-03-27T20:39:50.003Z,11.02
2023-03-27T20:42:23.204Z,11.06
2023-03-27T20:44:58.269Z,11.00
2023-03-27T20:47:26.087Z,10.94
2023-03-27T20:49:53.590Z,10.90
2023-03-27T20:52:22.953Z,10.90
2023-03-27T20:54:50.850Z,10.91
2023-03-27T20:57:21.724Z,10.86
2023-03-27T20:59:49.615Z,10.86
2023-03-27T21:02:21.706Z,10.79
2023-03-27T21:04:49.894Z,10.73
2023-03-27T21:07:17.498Z,10.66
2023-03-27T21:09:46.652Z,10.64
2023-03-27T21:12:14.314Z,10.64
2023-03-27T21:14:41.831Z,10.66
2023-03-27T21:17:11.887Z,10.63
2023-03-27T21:19:39.622Z,10.59
2023-03-27T21:22:15.078Z,10.62
2023-03-27T21:24:44.108Z,10.68
2023-03-27T21:27:11.627Z,10.68
2023-03-27T21:29:45.985Z,10.71
2023-03-27T21:32:14.701Z,10.67
2023-03-27T21:34:42.209Z,10.65
2023-03-27T21:37:09.810Z,10.65
2023-03-27T21:39:37.699Z,10.63
2023-03-27T21:42:10.088Z,10.66
2023-03-27T21:44:37.852Z,10.66
2023-03-27T21:47:05.633Z,10.72
2023-03-27T21:49:33.731Z,10.69
2023-03-27T21:52:01.713Z,10.71
2023-03-27T21:54:29.440Z,10.69
2023-03-27T21:56:57.180Z,10.59
2023-03-27T21:59:25.227Z,10.44
2023-03-27T22:01:56.187Z,10.45
2023-03-27T22:04:23.865Z,10.47
2023-03-27T22:06:51.506Z,10.39
2023-03-27T22:09:20.396Z,10.34
2023-03-27T22:11:48.376Z,10.34
2023-03-27T22:14:20.629Z,10.28
2023-03-27T22:16:48.731Z,10.20
2023-03-27T22:19:16.617Z,10.12
2023-03-27T22:21:51.821Z,10.12
2023-03-27T22:24:19.475Z,10.05
2023-03-27T22:26:47.032Z,10.05
2023-03-27T22:29:14.483Z,10.00
2023-03-27T22:31:42.022Z,9.96
2023-03-27T22:34:09.704Z,9.93
2023-03-27T22:36:38.965Z,9.94
2023-03-27T22:39:06.894Z,9.86
2023-03-27T22:41:36.785Z,9.81
2023-03-27T22:44:04.426Z,9.78
2023-03-27T22:46:31.972Z,9.75
2023-03-27T22:49:01.783Z,9.75
2023-03-27T22:51:31.082Z,9.71
2023-03-27T22:54:04.703Z,9.74
2023-03-27T22:56:32.747Z,9.77
2023-03-27T22:59:00.358Z,9.74
2023-03-27T23:01:28.015Z,9.76
2023-03-27T23:03:56.068Z,9.74
2023-03-27T23:06:24.079Z,9.74
2023-03-27T23:08:52.662Z,9.66
2023-03-27T23:11:20.715Z,9.58
2023-03-27T23:13:49.694Z,9.59
2023-03-27T23:16:18.807Z,9.57
2023-03-27T23:18:46.856Z,9.60
2023-03-27T23:21:17.756Z,9.58
2023-03-27T23:23:46.220Z,9.58
2023-03-27T23:26:16.270Z,9.63
2023-03-27T23:28:44.766Z,9.58
2023-03-27T23:31:15.016Z,9.54
2023-03-27T23:33:46.341Z,9.53
2023-03-27T23:36:17.387Z,9.50
2023-03-27T23:38:46.350Z,9.50
2023-03-27T23:41:15.832Z,9.38
2023-03-27T23:43:43.354Z,9.23
2023-03-27T23:46:11.679Z,9.20
2023-03-27T23:48:41.981Z,9.20
2023-03-27T23:51:10.503Z,9.22
2023-03-27T23:53:38.753Z,9.28
2023-03-27T23:56:06.574Z,9.24
2023-03-27T23:58:34.608Z,9.22
